sensor_id;sensor_type;location;lat;lon;timestamp;temperature;humidity
72288;SHT31;60221;45.696;16.076;2022-12-29T00:00:06;3.79;71.05
72288;SHT31;60221;45.696;16.076;2022-12-29T00:02:39;3.78;70.92
72288;SHT31;60221;45.696;16.076;2022-12-29T00:05:06;3.79;71.07
72288;SHT31;60221;45.696;16.076;2022-12-29T00:07:32;3.79;70.86
72288;SHT31;60221;45.696;16.076;2022-12-29T00:09:59;3.78;70.89
72288;SHT31;60221;45.696;16.076;2022-12-29T00:12:25;3.77;70.83
72288;SHT31;60221;45.696;16.076;2022-12-29T00:14:53;3.70;70.60
72288;SHT31;60221;45.696;16.076;2022-12-29T00:17:36;3.65;70.48
72288;SHT31;60221;45.696;16.076;2022-12-29T00:20:04;3.58;70.39
72288;SHT31;60221;45.696;16.076;2022-12-29T00:22:49;3.50;70.42
72288;SHT31;60221;45.696;16.076;2022-12-29T00:25:36;3.44;71.04
72288;SHT31;60221;45.696;16.076;2022-12-29T00:28:20;3.38;70.94
72288;SHT31;60221;45.696;16.076;2022-12-29T00:30:48;3.38;71.24
72288;SHT31;60221;45.696;16.076;2022-12-29T00:33:34;3.40;71.46
72288;SHT31;60221;45.696;16.076;2022-12-29T00:36:35;3.40;71.65
72288;SHT31;60221;45.696;16.076;2022-12-29T00:39:03;3.38;71.83
72288;SHT31;60221;45.696;16.076;2022-12-29T00:41:49;3.38;71.79
72288;SHT31;60221;45.696;16.076;2022-12-29T00:44:33;3.40;71.85
72288;SHT31;60221;45.696;16.076;2022-12-29T00:46:59;3.40;71.92
72288;SHT31;60221;45.696;16.076;2022-12-29T00:49:27;3.41;71.98
72288;SHT31;60221;45.696;16.076;2022-12-29T00:52:09;3.44;71.97
72288;SHT31;60221;45.696;16.076;2022-12-29T00:54:39;3.44;72.01
72288;SHT31;60221;45.696;16.076;2022-12-29T00:57:09;3.44;71.85
72288;SHT31;60221;45.696;16.076;2022-12-29T00:59:37;3.44;71.99
72288;SHT31;60221;45.696;16.076;2022-12-29T01:02:04;3.44;71.91
72288;SHT31;60221;45.696;16.076;2022-12-29T01:04:30;3.43;71.90
72288;SHT31;60221;45.696;16.076;2022-12-29T01:06:56;3.44;71.76
72288;SHT31;60221;45.696;16.076;2022-12-29T01:09:22;3.47;71.73
72288;SHT31;60221;45.696;16.076;2022-12-29T01:12:09;3.43;71.65
72288;SHT31;60221;45.696;16.076;2022-12-29T01:14:37;3.44;71.56
72288;SHT31;60221;45.696;16.076;2022-12-29T01:17:04;3.41;71.58
72288;SHT31;60221;45.696;16.076;2022-12-29T01:19:32;3.41;71.58
72288;SHT31;60221;45.696;16.076;2022-12-29T01:21:58;3.38;71.59
72288;SHT31;60221;45.696;16.076;2022-12-29T01:24:25;3.40;71.67
72288;SHT31;60221;45.696;16.076;2022-12-29T01:26:52;3.37;71.80
72288;SHT31;60221;45.696;16.076;2022-12-29T01:29:20;3.36;71.83
72288;SHT31;60221;45.696;16.076;2022-12-29T01:31:46;3.38;72.19
72288;SHT31;60221;45.696;16.076;2022-12-29T01:34:12;3.38;72.16
72288;SHT31;60221;45.696;16.076;2022-12-29T01:36:38;3.38;72.31
72288;SHT31;60221;45.696;16.076;2022-12-29T01:39:05;3.41;72.44
72288;SHT31;60221;45.696;16.076;2022-12-29T01:41:31;3.43;72.39
72288;SHT31;60221;45.696;16.076;2022-12-29T01:44:00;3.43;72.45
72288;SHT31;60221;45.696;16.076;2022-12-29T01:46:44;3.41;72.29
72288;SHT31;60221;45.696;16.076;2022-12-29T01:49:26;3.40;72.36
72288;SHT31;60221;45.696;16.076;2022-12-29T01:52:02;3.38;72.59
72288;SHT31;60221;45.696;16.076;2022-12-29T01:54:46;3.41;73.03
72288;SHT31;60221;45.696;16.076;2022-12-29T01:57:21;3.38;72.74
72288;SHT31;60221;45.696;16.076;2022-12-29T02:00:08;3.38;73.03
72288;SHT31;60221;45.696;16.076;2022-12-29T02:02:45;3.37;72.97
72288;SHT31;60221;45.696;16.076;2022-12-29T02:05:20;3.41;72.94
72288;SHT31;60221;45.696;16.076;2022-12-29T02:07:45;3.40;73.13
72288;SHT31;60221;45.696;16.076;2022-12-29T02:10:13;3.43;73.05
72288;SHT31;60221;45.696;16.076;2022-12-29T02:12:40;3.43;73.14
72288;SHT31;60221;45.696;16.076;2022-12-29T02:15:08;3.45;73.37
72288;SHT31;60221;45.696;16.076;2022-12-29T02:18:07;3.50;73.21
72288;SHT31;60221;45.696;16.076;2022-12-29T02:21:29;3.51;73.51
72288;SHT31;60221;45.696;16.076;2022-12-29T02:23:44;3.53;73.40
72288;SHT31;60221;45.696;16.076;2022-12-29T02:32:27;3.62;73.56
72288;SHT31;60221;45.696;16.076;2022-12-29T02:35:05;3.68;73.35
72288;SHT31;60221;45.696;16.076;2022-12-29T02:38:20;3.74;73.17
72288;SHT31;60221;45.696;16.076;2022-12-29T02:40:31;3.72;73.15
72288;SHT31;60221;45.696;16.076;2022-12-29T02:48:49;3.78;73.41
72288;SHT31;60221;45.696;16.076;2022-12-29T02:51:25;3.81;73.51
72288;SHT31;60221;45.696;16.076;2022-12-29T02:53:53;3.82;73.38
72288;SHT31;60221;45.696;16.076;2022-12-29T02:56:39;3.83;73.60
72288;SHT31;60221;45.696;16.076;2022-12-29T02:59:07;3.86;73.56
72288;SHT31;60221;45.696;16.076;2022-12-29T03:11:05;3.93;73.63
72288;SHT31;60221;45.696;16.076;2022-12-29T03:13:56;3.99;73.59
72288;SHT31;60221;45.696;16.076;2022-12-29T03:16:49;3.99;73.54
72288;SHT31;60221;45.696;16.076;2022-12-29T03:19:35;4.00;73.58
72288;SHT31;60221;45.696;16.076;2022-12-29T03:22:07;4.05;73.67
72288;SHT31;60221;45.696;16.076;2022-12-29T03:25:12;4.08;73.84
72288;SHT31;60221;45.696;16.076;2022-12-29T03:27:46;4.09;73.87
72288;SHT31;60221;45.696;16.076;2022-12-29T03:30:14;4.14;74.09
72288;SHT31;60221;45.696;16.076;2022-12-29T03:32:54;4.12;73.90
72288;SHT31;60221;45.696;16.076;2022-12-29T03:35:27;4.13;74.13
72288;SHT31;60221;45.696;16.076;2022-12-29T03:38:25;4.14;74.22
72288;SHT31;60221;45.696;16.076;2022-12-29T03:40:56;4.17;74.38
72288;SHT31;60221;45.696;16.076;2022-12-29T03:43:25;4.21;74.44
72288;SHT31;60221;45.696;16.076;2022-12-29T03:45:54;4.21;74.48
72288;SHT31;60221;45.696;16.076;2022-12-29T03:48:21;4.20;74.36
72288;SHT31;60221;45.696;16.076;2022-12-29T03:50:48;4.23;74.41
72288;SHT31;60221;45.696;16.076;2022-12-29T03:53:15;4.20;74.27
72288;SHT31;60221;45.696;16.076;2022-12-29T03:55:41;4.16;74.51
72288;SHT31;60221;45.696;16.076;2022-12-29T03:58:09;4.16;74.70
72288;SHT31;60221;45.696;16.076;2022-12-29T04:00:54;4.12;74.67
72288;SHT31;60221;45.696;16.076;2022-12-29T04:03:21;4.12;74.79
72288;SHT31;60221;45.696;16.076;2022-12-29T04:05:48;4.10;74.92
72288;SHT31;60221;45.696;16.076;2022-12-29T04:08:15;4.10;74.86
72288;SHT31;60221;45.696;16.076;2022-12-29T04:10:42;4.12;75.04
72288;SHT31;60221;45.696;16.076;2022-12-29T04:13:08;4.12;74.87
72288;SHT31;60221;45.696;16.076;2022-12-29T04:15:35;4.12;74.76
72288;SHT31;60221;45.696;16.076;2022-12-29T04:18:02;4.09;74.59
72288;SHT31;60221;45.696;16.076;2022-12-29T04:20:29;4.05;74.71
72288;SHT31;60221;45.696;16.076;2022-12-29T04:23:14;4.03;74.98
72288;SHT31;60221;45.696;16.076;2022-12-29T04:25:45;4.00;74.79
72288;SHT31;60221;45.696;16.076;2022-12-29T04:28:15;4.00;74.90
72288;SHT31;60221;45.696;16.076;2022-12-29T04:30:53;3.95;74.93
72288;SHT31;60221;45.696;16.076;2022-12-29T04:33:22;3.95;75.01
72288;SHT31;60221;45.696;16.076;2022-12-29T04:35:49;3.93;74.95
72288;SHT31;60221;45.696;16.076;2022-12-29T04:38:16;3.92;74.96
72288;SHT31;60221;45.696;16.076;2022-12-29T04:40:44;3.93;75.34
72288;SHT31;60221;45.696;16.076;2022-12-29T04:43:11;3.91;75.28
72288;SHT31;60221;45.696;16.076;2022-12-29T04:45:56;3.89;75.67
72288;SHT31;60221;45.696;16.076;2022-12-29T04:48:27;3.91;75.90
72288;SHT31;60221;45.696;16.076;2022-12-29T04:51:07;3.96;75.94
72288;SHT31;60221;45.696;16.076;2022-12-29T04:53:35;3.95;75.46
72288;SHT31;60221;45.696;16.076;2022-12-29T04:56:02;3.93;75.32
72288;SHT31;60221;45.696;16.076;2022-12-29T04:58:28;3.95;75.60
72288;SHT31;60221;45.696;16.076;2022-12-29T05:00:55;3.93;75.58
72288;SHT31;60221;45.696;16.076;2022-12-29T05:03:23;3.93;75.51
72288;SHT31;60221;45.696;16.076;2022-12-29T05:05:55;3.93;75.14
72288;SHT31;60221;45.696;16.076;2022-12-29T05:08:23;3.88;75.19
72288;SHT31;60221;45.696;16.076;2022-12-29T05:10:53;3.86;75.07
72288;SHT31;60221;45.696;16.076;2022-12-29T05:13:20;3.86;75.13
72288;SHT31;60221;45.696;16.076;2022-12-29T05:15:52;3.85;75.02
72288;SHT31;60221;45.696;16.076;2022-12-29T05:18:19;3.85;75.06
72288;SHT31;60221;45.696;16.076;2022-12-29T05:20:47;3.82;75.00
72288;SHT31;60221;45.696;16.076;2022-12-29T05:23:14;3.81;74.85
72288;SHT31;60221;45.696;16.076;2022-12-29T05:25:43;3.77;74.70
72288;SHT31;60221;45.696;16.076;2022-12-29T05:28:19;3.72;74.49
72288;SHT31;60221;45.696;16.076;2022-12-29T05:30:51;3.67;74.60
72288;SHT31;60221;45.696;16.076;2022-12-29T05:33:19;3.65;74.76
72288;SHT31;60221;45.696;16.076;2022-12-29T05:35:47;3.65;74.82
72288;SHT31;60221;45.696;16.076;2022-12-29T05:38:14;3.62;74.93
72288;SHT31;60221;45.696;16.076;2022-12-29T05:40:43;3.61;75.18
72288;SHT31;60221;45.696;16.076;2022-12-29T05:43:17;3.64;75.66
72288;SHT31;60221;45.696;16.076;2022-12-29T05:45:50;3.62;76.05
72288;SHT31;60221;45.696;16.076;2022-12-29T05:48:25;3.65;75.88
72288;SHT31;60221;45.696;16.076;2022-12-29T05:50:56;3.67;75.92
72288;SHT31;60221;45.696;16.076;2022-12-29T05:53:24;3.65;75.87
72288;SHT31;60221;45.696;16.076;2022-12-29T05:55:51;3.68;76.29
72288;SHT31;60221;45.696;16.076;2022-12-29T05:58:17;3.68;76.18
72288;SHT31;60221;45.696;16.076;2022-12-29T06:00:44;3.70;76.20
72288;SHT31;60221;45.696;16.076;2022-12-29T06:03:12;3.68;76.14
72288;SHT31;60221;45.696;16.076;2022-12-29T06:05:39;3.67;76.21
72288;SHT31;60221;45.696;16.076;2022-12-29T06:08:05;3.67;76.45
72288;SHT31;60221;45.696;16.076;2022-12-29T06:10:32;3.62;75.82
72288;SHT31;60221;45.696;16.076;2022-12-29T06:13:00;3.61;75.93
72288;SHT31;60221;45.696;16.076;2022-12-29T06:15:27;3.58;75.91
72288;SHT31;60221;45.696;16.076;2022-12-29T06:17:54;3.58;75.90
72288;SHT31;60221;45.696;16.076;2022-12-29T06:20:22;3.58;75.62
72288;SHT31;60221;45.696;16.076;2022-12-29T06:22:48;3.54;75.73
72288;SHT31;60221;45.696;16.076;2022-12-29T06:25:16;3.57;75.69
72288;SHT31;60221;45.696;16.076;2022-12-29T06:27:44;3.54;75.69
72288;SHT31;60221;45.696;16.076;2022-12-29T06:30:12;3.53;75.72
72288;SHT31;60221;45.696;16.076;2022-12-29T06:32:40;3.53;75.71
72288;SHT31;60221;45.696;16.076;2022-12-29T06:35:09;3.53;75.70
72288;SHT31;60221;45.696;16.076;2022-12-29T06:37:38;3.55;75.51
72288;SHT31;60221;45.696;16.076;2022-12-29T06:40:06;3.54;75.45
72288;SHT31;60221;45.696;16.076;2022-12-29T06:42:35;3.51;75.44
72288;SHT31;60221;45.696;16.076;2022-12-29T06:45:12;3.54;75.36
72288;SHT31;60221;45.696;16.076;2022-12-29T06:47:39;3.55;75.37
72288;SHT31;60221;45.696;16.076;2022-12-29T06:50:06;3.57;75.24
72288;SHT31;60221;45.696;16.076;2022-12-29T06:52:33;3.64;75.28
72288;SHT31;60221;45.696;16.076;2022-12-29T06:54:59;3.64;75.31
72288;SHT31;60221;45.696;16.076;2022-12-29T06:57:26;3.68;75.05
72288;SHT31;60221;45.696;16.076;2022-12-29T06:59:52;3.68;75.00
72288;SHT31;60221;45.696;16.076;2022-12-29T07:02:21;3.71;74.90
72288;SHT31;60221;45.696;16.076;2022-12-29T07:04:47;3.70;74.92
72288;SHT31;60221;45.696;16.076;2022-12-29T07:07:14;3.71;75.01
72288;SHT31;60221;45.696;16.076;2022-12-29T07:09:40;3.74;74.96
72288;SHT31;60221;45.696;16.076;2022-12-29T07:12:06;3.75;74.96
72288;SHT31;60221;45.696;16.076;2022-12-29T07:14:33;3.78;74.98
72288;SHT31;60221;45.696;16.076;2022-12-29T07:16:59;3.82;75.02
72288;SHT31;60221;45.696;16.076;2022-12-29T07:19:26;3.85;75.11
72288;SHT31;60221;45.696;16.076;2022-12-29T07:21:54;3.89;75.16
72288;SHT31;60221;45.696;16.076;2022-12-29T07:24:21;3.93;75.21
72288;SHT31;60221;45.696;16.076;2022-12-29T07:26:47;4.00;75.17
72288;SHT31;60221;45.696;16.076;2022-12-29T07:29:14;4.03;75.22
72288;SHT31;60221;45.696;16.076;2022-12-29T07:31:40;4.12;75.22
72288;SHT31;60221;45.696;16.076;2022-12-29T07:34:09;4.19;75.13
72288;SHT31;60221;45.696;16.076;2022-12-29T07:36:35;4.21;75.19
72288;SHT31;60221;45.696;16.076;2022-12-29T07:39:03;4.29;75.23
72288;SHT31;60221;45.696;16.076;2022-12-29T07:41:29;4.39;75.29
72288;SHT31;60221;45.696;16.076;2022-12-29T07:43:56;4.46;75.32
72288;SHT31;60221;45.696;16.076;2022-12-29T07:46:24;4.50;75.38
72288;SHT31;60221;45.696;16.076;2022-12-29T07:48:51;4.56;75.49
72288;SHT31;60221;45.696;16.076;2022-12-29T07:51:17;4.63;75.50
72288;SHT31;60221;45.696;16.076;2022-12-29T07:53:44;4.69;75.66
72288;SHT31;60221;45.696;16.076;2022-12-29T07:56:10;4.78;75.52
72288;SHT31;60221;45.696;16.076;2022-12-29T07:58:36;4.84;75.58
72288;SHT31;60221;45.696;16.076;2022-12-29T08:01:03;4.91;75.56
72288;SHT31;60221;45.696;16.076;2022-12-29T08:03:30;4.98;75.72
72288;SHT31;60221;45.696;16.076;2022-12-29T08:05:57;5.02;75.78
72288;SHT31;60221;45.696;16.076;2022-12-29T08:08:23;5.06;75.71
72288;SHT31;60221;45.696;16.076;2022-12-29T08:10:49;5.12;75.64
72288;SHT31;60221;45.696;16.076;2022-12-29T08:13:16;5.13;75.79
72288;SHT31;60221;45.696;16.076;2022-12-29T08:15:42;5.22;76.03
72288;SHT31;60221;45.696;16.076;2022-12-29T08:18:09;5.27;76.19
72288;SHT31;60221;45.696;16.076;2022-12-29T08:20:35;5.32;76.36
72288;SHT31;60221;45.696;16.076;2022-12-29T08:23:02;5.37;77.33
72288;SHT31;60221;45.696;16.076;2022-12-29T08:25:28;5.44;77.21
72288;SHT31;60221;45.696;16.076;2022-12-29T08:27:55;5.51;77.08
72288;SHT31;60221;45.696;16.076;2022-12-29T08:30:21;5.58;76.25
72288;SHT31;60221;45.696;16.076;2022-12-29T08:32:49;5.67;75.70
72288;SHT31;60221;45.696;16.076;2022-12-29T08:35:16;5.72;75.76
72288;SHT31;60221;45.696;16.076;2022-12-29T08:37:43;5.77;76.00
72288;SHT31;60221;45.696;16.076;2022-12-29T08:40:10;5.79;75.89
72288;SHT31;60221;45.696;16.076;2022-12-29T08:42:36;5.84;76.02
72288;SHT31;60221;45.696;16.076;2022-12-29T08:45:04;5.91;76.28
72288;SHT31;60221;45.696;16.076;2022-12-29T08:47:31;5.94;76.16
72288;SHT31;60221;45.696;16.076;2022-12-29T08:49:57;6.02;75.72
72288;SHT31;60221;45.696;16.076;2022-12-29T08:52:23;6.05;75.54
72288;SHT31;60221;45.696;16.076;2022-12-29T08:54:50;6.12;75.90
72288;SHT31;60221;45.696;16.076;2022-12-29T08:57:16;6.18;75.86
72288;SHT31;60221;45.696;16.076;2022-12-29T08:59:45;6.23;76.25
72288;SHT31;60221;45.696;16.076;2022-12-29T09:02:13;6.33;76.21
72288;SHT31;60221;45.696;16.076;2022-12-29T09:04:39;6.36;75.74
72288;SHT31;60221;45.696;16.076;2022-12-29T09:07:06;6.41;76.18
72288;SHT31;60221;45.696;16.076;2022-12-29T09:09:33;6.47;76.02
72288;SHT31;60221;45.696;16.076;2022-12-29T09:12:00;6.53;76.19
72288;SHT31;60221;45.696;16.076;2022-12-29T09:14:26;6.58;75.72
72288;SHT31;60221;45.696;16.076;2022-12-29T09:16:53;6.58;75.72
72288;SHT31;60221;45.696;16.076;2022-12-29T09:19:38;6.61;75.78
72288;SHT31;60221;45.696;16.076;2022-12-29T09:22:05;6.70;75.96
72288;SHT31;60221;45.696;16.076;2022-12-29T09:24:31;6.84;75.72
72288;SHT31;60221;45.696;16.076;2022-12-29T09:26:58;6.94;75.88
72288;SHT31;60221;45.696;16.076;2022-12-29T09:29:24;7.06;75.87
72288;SHT31;60221;45.696;16.076;2022-12-29T09:31:50;7.18;75.48
72288;SHT31;60221;45.696;16.076;2022-12-29T09:34:17;7.30;75.77
72288;SHT31;60221;45.696;16.076;2022-12-29T09:36:44;7.37;76.11
72288;SHT31;60221;45.696;16.076;2022-12-29T09:39:10;7.46;76.47
72288;SHT31;60221;45.696;16.076;2022-12-29T09:41:43;7.54;75.90
72288;SHT31;60221;45.696;16.076;2022-12-29T09:47:16;7.68;75.80
72288;SHT31;60221;45.696;16.076;2022-12-29T09:49:52;7.74;76.11
72288;SHT31;60221;45.696;16.076;2022-12-29T09:52:32;7.82;76.43
72288;SHT31;60221;45.696;16.076;2022-12-29T09:55:15;7.91;76.55
72288;SHT31;60221;45.696;16.076;2022-12-29T09:57:59;7.99;76.12
72288;SHT31;60221;45.696;16.076;2022-12-29T10:00:41;8.04;76.43
72288;SHT31;60221;45.696;16.076;2022-12-29T10:03:16;8.12;77.09
72288;SHT31;60221;45.696;16.076;2022-12-29T10:06:13;8.19;76.87
72288;SHT31;60221;45.696;16.076;2022-12-29T10:23:15;8.75;77.32
72288;SHT31;60221;45.696;16.076;2022-12-29T10:25:42;8.82;77.47
72288;SHT31;60221;45.696;16.076;2022-12-29T10:29:13;8.92;77.41
72288;SHT31;60221;45.696;16.076;2022-12-29T10:30:54;9.00;77.19
72288;SHT31;60221;45.696;16.076;2022-12-29T10:33:32;9.14;77.20
72288;SHT31;60221;45.696;16.076;2022-12-29T10:35:56;9.28;76.74
72288;SHT31;60221;45.696;16.076;2022-12-29T10:38:36;9.40;76.78
72288;SHT31;60221;45.696;16.076;2022-12-29T10:41:27;9.60;76.96
72288;SHT31;60221;45.696;16.076;2022-12-29T10:43:57;9.76;77.05
72288;SHT31;60221;45.696;16.076;2022-12-29T10:46:28;9.87;77.06
72288;SHT31;60221;45.696;16.076;2022-12-29T10:48:56;9.94;76.56
72288;SHT31;60221;45.696;16.076;2022-12-29T10:51:36;10.00;77.09
72288;SHT31;60221;45.696;16.076;2022-12-29T10:54:32;10.04;77.42
72288;SHT31;60221;45.696;16.076;2022-12-29T10:57:09;10.14;77.94
72288;SHT31;60221;45.696;16.076;2022-12-29T10:59:37;10.25;78.06
72288;SHT31;60221;45.696;16.076;2022-12-29T11:02:25;10.35;77.96
72288;SHT31;60221;45.696;16.076;2022-12-29T11:04:59;10.46;77.45
72288;SHT31;60221;45.696;16.076;2022-12-29T11:07:25;10.60;77.11
72288;SHT31;60221;45.696;16.076;2022-12-29T11:09:52;10.69;76.66
72288;SHT31;60221;45.696;16.076;2022-12-29T11:12:26;10.79;76.78
72288;SHT31;60221;45.696;16.076;2022-12-29T11:15:15;10.84;77.16
72288;SHT31;60221;45.696;16.076;2022-12-29T11:17:57;10.90;77.22
72288;SHT31;60221;45.696;16.076;2022-12-29T11:28:47;11.01;76.84
72288;SHT31;60221;45.696;16.076;2022-12-29T11:31:18;11.06;76.90
72288;SHT31;60221;45.696;16.076;2022-12-29T11:33:46;11.14;76.82
72288;SHT31;60221;45.696;16.076;2022-12-29T11:36:17;11.18;76.82
72288;SHT31;60221;45.696;16.076;2022-12-29T11:38:55;11.25;76.89
72288;SHT31;60221;45.696;16.076;2022-12-29T11:41:31;11.32;76.96
72288;SHT31;60221;45.696;16.076;2022-12-29T11:44:05;11.34;76.76
72288;SHT31;60221;45.696;16.076;2022-12-29T11:46:36;11.36;76.73
72288;SHT31;60221;45.696;16.076;2022-12-29T11:49:05;11.43;76.81
72288;SHT31;60221;45.696;16.076;2022-12-29T11:51:44;11.46;76.73
72288;SHT31;60221;45.696;16.076;2022-12-29T11:54:22;11.51;76.75
72288;SHT31;60221;45.696;16.076;2022-12-29T11:56:50;11.52;76.71
72288;SHT31;60221;45.696;16.076;2022-12-29T11:59:41;11.53;76.64
72288;SHT31;60221;45.696;16.076;2022-12-29T12:05:23;11.62;76.63
72288;SHT31;60221;45.696;16.076;2022-12-29T12:08:01;11.69;76.90
72288;SHT31;60221;45.696;16.076;2022-12-29T12:10:37;11.83;77.12
72288;SHT31;60221;45.696;16.076;2022-12-29T12:13:08;11.93;77.16
72288;SHT31;60221;45.696;16.076;2022-12-29T12:15:47;12.03;76.85
72288;SHT31;60221;45.696;16.076;2022-12-29T12:21:34;12.20;76.36
72288;SHT31;60221;45.696;16.076;2022-12-29T12:24:33;12.27;76.37
72288;SHT31;60221;45.696;16.076;2022-12-29T12:27:24;12.37;76.58
72288;SHT31;60221;45.696;16.076;2022-12-29T12:29:56;12.44;76.21
72288;SHT31;60221;45.696;16.076;2022-12-29T12:32:50;12.51;76.19
72288;SHT31;60221;45.696;16.076;2022-12-29T12:35:32;12.56;76.30
72288;SHT31;60221;45.696;16.076;2022-12-29T12:38:20;12.56;76.32
72288;SHT31;60221;45.696;16.076;2022-12-29T12:43:54;12.58;76.67
72288;SHT31;60221;45.696;16.076;2022-12-29T12:50:02;12.59;76.91
72288;SHT31;60221;45.696;16.076;2022-12-29T12:52:57;12.62;76.89
72288;SHT31;60221;45.696;16.076;2022-12-29T12:55:42;12.60;76.95
72288;SHT31;60221;45.696;16.076;2022-12-29T13:04:01;12.66;76.79
72288;SHT31;60221;45.696;16.076;2022-12-29T13:12:52;12.59;77.08
72288;SHT31;60221;45.696;16.076;2022-12-29T13:18:27;12.51;77.66
72288;SHT31;60221;45.696;16.076;2022-12-29T13:30:05;12.41;78.62
72288;SHT31;60221;45.696;16.076;2022-12-29T13:38:29;12.38;78.92
72288;SHT31;60221;45.696;16.076;2022-12-29T13:41:02;12.38;79.29
72288;SHT31;60221;45.696;16.076;2022-12-29T13:43:32;12.38;79.33
72288;SHT31;60221;45.696;16.076;2022-12-29T13:46:13;12.37;79.52
72288;SHT31;60221;45.696;16.076;2022-12-29T13:49:00;12.34;79.64
72288;SHT31;60221;45.696;16.076;2022-12-29T13:51:29;12.34;79.53
72288;SHT31;60221;45.696;16.076;2022-12-29T13:57:06;12.28;79.71
72288;SHT31;60221;45.696;16.076;2022-12-29T13:59:54;12.25;79.77
72288;SHT31;60221;45.696;16.076;2022-12-29T14:05:26;12.18;79.70
72288;SHT31;60221;45.696;16.076;2022-12-29T14:07:38;12.16;79.81
72288;SHT31;60221;45.696;16.076;2022-12-29T14:10:53;12.18;79.95
72288;SHT31;60221;45.696;16.076;2022-12-29T14:12:40;12.17;80.05
72288;SHT31;60221;45.696;16.076;2022-12-29T14:15:16;12.18;80.34
72288;SHT31;60221;45.696;16.076;2022-12-29T14:17:44;12.18;80.30
72288;SHT31;60221;45.696;16.076;2022-12-29T14:20:21;12.21;80.43
72288;SHT31;60221;45.696;16.076;2022-12-29T14:28:36;12.17;80.53
72288;SHT31;60221;45.696;16.076;2022-12-29T14:36:57;12.01;80.44
72288;SHT31;60221;45.696;16.076;2022-12-29T14:39:44;11.94;80.45
72288;SHT31;60221;45.696;16.076;2022-12-29T14:42:19;11.90;80.59
72288;SHT31;60221;45.696;16.076;2022-12-29T14:47:50;11.84;80.72
72288;SHT31;60221;45.696;16.076;2022-12-29T14:52:59;11.76;80.54
72288;SHT31;60221;45.696;16.076;2022-12-29T14:55:55;11.69;80.46
72288;SHT31;60221;45.696;16.076;2022-12-29T14:58:41;11.65;80.30
72288;SHT31;60221;45.696;16.076;2022-12-29T15:01:38;11.62;80.35
72288;SHT31;60221;45.696;16.076;2022-12-29T15:04:23;11.55;80.35
72288;SHT31;60221;45.696;16.076;2022-12-29T15:06:51;11.49;80.32
72288;SHT31;60221;45.696;16.076;2022-12-29T15:09:33;11.47;80.42
72288;SHT31;60221;45.696;16.076;2022-12-29T15:14:59;11.38;80.38
72288;SHT31;60221;45.696;16.076;2022-12-29T15:17:32;11.31;80.27
72288;SHT31;60221;45.696;16.076;2022-12-29T15:20:17;11.29;80.30
72288;SHT31;60221;45.696;16.076;2022-12-29T15:22:49;11.24;80.08
72288;SHT31;60221;45.696;16.076;2022-12-29T15:25:18;11.19;80.16
72288;SHT31;60221;45.696;16.076;2022-12-29T15:27:55;11.14;80.19
72288;SHT31;60221;45.696;16.076;2022-12-29T15:30:22;11.10;80.24
72288;SHT31;60221;45.696;16.076;2022-12-29T15:32:50;11.06;80.23
72288;SHT31;60221;45.696;16.076;2022-12-29T15:35:34;11.04;80.09
72288;SHT31;60221;45.696;16.076;2022-12-29T15:38:31;11.00;80.16
72288;SHT31;60221;45.696;16.076;2022-12-29T15:40:45;10.96;80.21
72288;SHT31;60221;45.696;16.076;2022-12-29T15:43:38;10.91;80.29
72288;SHT31;60221;45.696;16.076;2022-12-29T15:46:04;10.88;80.30
72288;SHT31;60221;45.696;16.076;2022-12-29T15:48:32;10.87;80.34
72288;SHT31;60221;45.696;16.076;2022-12-29T15:50:59;10.83;80.49
72288;SHT31;60221;45.696;16.076;2022-12-29T15:53:30;10.76;80.34
72288;SHT31;60221;45.696;16.076;2022-12-29T15:56:08;10.73;80.48
72288;SHT31;60221;45.696;16.076;2022-12-29T15:58:50;10.70;80.34
72288;SHT31;60221;45.696;16.076;2022-12-29T16:01:33;10.67;80.31
72288;SHT31;60221;45.696;16.076;2022-12-29T16:04:06;10.64;80.31
72288;SHT31;60221;45.696;16.076;2022-12-29T16:06:39;10.60;80.36
72288;SHT31;60221;45.696;16.076;2022-12-29T16:09:16;10.57;80.49
72288;SHT31;60221;45.696;16.076;2022-12-29T16:11:53;10.56;80.61
72288;SHT31;60221;45.696;16.076;2022-12-29T16:14:42;10.52;80.39
72288;SHT31;60221;45.696;16.076;2022-12-29T16:17:14;10.50;80.43
72288;SHT31;60221;45.696;16.076;2022-12-29T16:19:54;10.43;80.37
72288;SHT31;60221;45.696;16.076;2022-12-29T16:22:45;10.38;80.37
72288;SHT31;60221;45.696;16.076;2022-12-29T16:25:33;10.32;80.33
72288;SHT31;60221;45.696;16.076;2022-12-29T16:28:14;10.29;80.49
72288;SHT31;60221;45.696;16.076;2022-12-29T16:30:33;10.28;80.55
72288;SHT31;60221;45.696;16.076;2022-12-29T16:33:05;10.25;80.70
72288;SHT31;60221;45.696;16.076;2022-12-29T16:35:47;10.22;80.77
72288;SHT31;60221;45.696;16.076;2022-12-29T16:38:20;10.19;80.92
72288;SHT31;60221;45.696;16.076;2022-12-29T16:40:59;10.16;80.98
72288;SHT31;60221;45.696;16.076;2022-12-29T16:43:33;10.19;81.32
72288;SHT31;60221;45.696;16.076;2022-12-29T16:48:55;10.18;81.21
72288;SHT31;60221;45.696;16.076;2022-12-29T16:51:32;10.16;81.23
72288;SHT31;60221;45.696;16.076;2022-12-29T16:54:01;10.15;81.22
72288;SHT31;60221;45.696;16.076;2022-12-29T16:56:34;10.14;81.33
72288;SHT31;60221;45.696;16.076;2022-12-29T16:59:06;10.09;81.34
72288;SHT31;60221;45.696;16.076;2022-12-29T17:01:39;10.08;81.35
72288;SHT31;60221;45.696;16.076;2022-12-29T17:04:10;10.08;81.41
72288;SHT31;60221;45.696;16.076;2022-12-29T17:06:38;10.06;81.40
72288;SHT31;60221;45.696;16.076;2022-12-29T17:09:20;10.04;81.49
72288;SHT31;60221;45.696;16.076;2022-12-29T17:11:55;10.04;81.59
72288;SHT31;60221;45.696;16.076;2022-12-29T17:17:41;10.00;81.61
72288;SHT31;60221;45.696;16.076;2022-12-29T17:22:46;9.95;81.68
72288;SHT31;60221;45.696;16.076;2022-12-29T17:25:17;9.97;81.71
72288;SHT31;60221;45.696;16.076;2022-12-29T17:28:00;9.98;81.71
72288;SHT31;60221;45.696;16.076;2022-12-29T17:30:29;9.94;81.77
72288;SHT31;60221;45.696;16.076;2022-12-29T17:33:04;9.93;81.77
72288;SHT31;60221;45.696;16.076;2022-12-29T17:35:31;9.94;81.91
72288;SHT31;60221;45.696;16.076;2022-12-29T17:37:57;9.95;82.01
72288;SHT31;60221;45.696;16.076;2022-12-29T17:40:27;9.93;82.02
72288;SHT31;60221;45.696;16.076;2022-12-29T17:42:57;9.90;82.12
72288;SHT31;60221;45.696;16.076;2022-12-29T17:45:31;9.93;82.20
72288;SHT31;60221;45.696;16.076;2022-12-29T17:47:59;9.90;82.24
72288;SHT31;60221;45.696;16.076;2022-12-29T17:50:29;9.88;82.33
72288;SHT31;60221;45.696;16.076;2022-12-29T17:53:03;9.84;82.34
72288;SHT31;60221;45.696;16.076;2022-12-29T17:55:30;9.84;82.43
72288;SHT31;60221;45.696;16.076;2022-12-29T17:57:57;9.84;82.46
72288;SHT31;60221;45.696;16.076;2022-12-29T18:00:27;9.80;82.50
72288;SHT31;60221;45.696;16.076;2022-12-29T18:02:57;9.76;82.38